sensor_id;sensor_type;location;lat;lon;timestamp;P1;durP1;ratioP1;P2;durP2;ratioP2
44430;SDS011;30135;47.866;-4.222;2023-06-14T00:00:51;13.02;;;6.43;;
44430;SDS011;30135;47.866;-4.222;2023-06-14T00:03:18;18.58;;;7.63;;
44430;SDS011;30135;47.866;-4.222;2023-06-14T00:05:47;16.27;;;7.38;;
44430;SDS011;30135;47.866;-4.222;2023-06-14T00:08:14;15.52;;;6.53;;
44430;SDS011;30135;47.866;-4.222;2023-06-14T00:10:40;15.32;;;7.18;;
44430;SDS011;30135;47.866;-4.222;2023-06-14T00:13:08;14.77;;;6.60;;
44430;SDS011;30135;47.866;-4.222;2023-06-14T00:15:34;15.93;;;7.50;;
44430;SDS011;30135;47.866;-4.222;2023-06-14T00:18:01;12.55;;;6.32;;
44430;SDS011;30135;47.866;-4.222;2023-06-14T00:20:28;16.33;;;6.75;;
44430;SDS011;30135;47.866;-4.222;2023-06-14T00:22:56;13.68;;;6.65;;
44430;SDS011;30135;47.866;-4.222;2023-06-14T00:25:22;15.00;;;7.72;;
44430;SDS011;30135;47.866;-4.222;2023-06-14T00:27:50;14.73;;;6.97;;
44430;SDS011;30135;47.866;-4.222;2023-06-14T00:30:17;24.35;;;8.38;;
44430;SDS011;30135;47.866;-4.222;2023-06-14T00:32:43;23.50;;;9.02;;
44430;SDS011;30135;47.866;-4.222;2023-06-14T00:35:10;16.35;;;7.68;;
44430;SDS011;30135;47.866;-4.222;2023-06-14T00:37:37;18.83;;;7.78;;
44430;SDS011;30135;47.866;-4.222;2023-06-14T00:40:04;15.65;;;7.20;;
44430;SDS011;30135;47.866;-4.222;2023-06-14T00:42:31;19.08;;;8.60;;
44430;SDS011;30135;47.866;-4.222;2023-06-14T00:44:58;18.15;;;9.05;;
44430;SDS011;30135;47.866;-4.222;2023-06-14T00:47:25;18.30;;;6.95;;
44430;SDS011;30135;47.866;-4.222;2023-06-14T00:49:52;18.30;;;8.25;;
44430;SDS011;30135;47.866;-4.222;2023-06-14T00:52:19;21.65;;;8.65;;
44430;SDS011;30135;47.866;-4.222;2023-06-14T00:54:47;16.30;;;7.20;;
44430;SDS011;30135;47.866;-4.222;2023-06-14T00:57:13;16.00;;;7.75;;
44430;SDS011;30135;47.866;-4.222;2023-06-14T00:59:46;16.10;;;7.35;;
44430;SDS011;30135;47.866;-4.222;2023-06-14T01:02:13;18.77;;;7.55;;
44430;SDS011;30135;47.866;-4.222;2023-06-14T01:04:40;17.73;;;7.60;;
44430;SDS011;30135;47.866;-4.222;2023-06-14T01:09:49;18.25;;;6.85;;
44430;SDS011;30135;47.866;-4.222;2023-06-14T01:15:16;13.15;;;5.80;;
44430;SDS011;30135;47.866;-4.222;2023-06-14T01:17:44;11.32;;;5.60;;
44430;SDS011;30135;47.866;-4.222;2023-06-14T01:20:11;14.55;;;7.43;;
44430;SDS011;30135;47.866;-4.222;2023-06-14T01:22:52;13.43;;;6.60;;
44430;SDS011;30135;47.866;-4.222;2023-06-14T01:25:19;14.68;;;5.88;;
44430;SDS011;30135;47.866;-4.222;2023-06-14T01:27:51;10.07;;;5.30;;
44430;SDS011;30135;47.866;-4.222;2023-06-14T01:30:24;14.68;;;6.32;;
44430;SDS011;30135;47.866;-4.222;2023-06-14T01:32:51;11.57;;;6.38;;
44430;SDS011;30135;47.866;-4.222;2023-06-14T01:35:19;13.60;;;6.22;;
44430;SDS011;30135;47.866;-4.222;2023-06-14T01:37:49;15.23;;;6.63;;
44430;SDS011;30135;47.866;-4.222;2023-06-14T01:40:15;15.25;;;6.30;;
44430;SDS011;30135;47.866;-4.222;2023-06-14T01:42:46;15.80;;;7.60;;
44430;SDS011;30135;47.866;-4.222;2023-06-14T01:45:14;12.48;;;5.47;;
44430;SDS011;30135;47.866;-4.222;2023-06-14T01:47:42;13.35;;;6.80;;
44430;SDS011;30135;47.866;-4.222;2023-06-14T01:50:10;15.93;;;6.60;;
44430;SDS011;30135;47.866;-4.222;2023-06-14T01:52:37;10.93;;;5.82;;
44430;SDS011;30135;47.866;-4.222;2023-06-14T01:55:06;13.48;;;6.57;;
44430;SDS011;30135;47.866;-4.222;2023-06-14T01:57:33;17.50;;;6.95;;
44430;SDS011;30135;47.866;-4.222;2023-06-14T01:59:59;12.38;;;6.65;;
44430;SDS011;30135;47.866;-4.222;2023-06-14T02:02:25;12.85;;;6.38;;
44430;SDS011;30135;47.866;-4.222;2023-06-14T02:04:51;12.90;;;6.28;;
44430;SDS011;30135;47.866;-4.222;2023-06-14T02:07:17;12.93;;;6.15;;
44430;SDS011;30135;47.866;-4.222;2023-06-14T02:09:43;18.15;;;7.10;;
44430;SDS011;30135;47.866;-4.222;2023-06-14T02:12:09;10.27;;;5.13;;
44430;SDS011;30135;47.866;-4.222;2023-06-14T02:14:36;12.30;;;6.45;;
44430;SDS011;30135;47.866;-4.222;2023-06-14T02:17:03;13.75;;;6.72;;
44430;SDS011;30135;47.866;-4.222;2023-06-14T02:19:29;9.00;;;4.85;;
44430;SDS011;30135;47.866;-4.222;2023-06-14T02:21:56;9.68;;;5.03;;
44430;SDS011;30135;47.866;-4.222;2023-06-14T02:24:22;13.30;;;5.88;;
44430;SDS011;30135;47.866;-4.222;2023-06-14T02:26:49;12.18;;;5.68;;
44430;SDS011;30135;47.866;-4.222;2023-06-14T02:29:15;13.07;;;6.03;;
44430;SDS011;30135;47.866;-4.222;2023-06-14T02:31:42;12.48;;;5.93;;
44430;SDS011;30135;47.866;-4.222;2023-06-14T02:34:08;11.82;;;5.43;;
44430;SDS011;30135;47.866;-4.222;2023-06-14T02:36:34;12.02;;;5.65;;
44430;SDS011;30135;47.866;-4.222;2023-06-14T02:39:05;9.13;;;4.53;;
44430;SDS011;30135;47.866;-4.222;2023-06-14T02:41:31;10.32;;;4.82;;
44430;SDS011;30135;47.866;-4.222;2023-06-14T02:43:57;9.10;;;5.03;;
44430;SDS011;30135;47.866;-4.222;2023-06-14T02:46:23;8.95;;;4.38;;
44430;SDS011;30135;47.866;-4.222;2023-06-14T02:48:49;11.00;;;5.35;;
44430;SDS011;30135;47.866;-4.222;2023-06-14T02:51:15;13.10;;;5.57;;
44430;SDS011;30135;47.866;-4.222;2023-06-14T02:53:41;10.45;;;4.75;;
44430;SDS011;30135;47.866;-4.222;2023-06-14T02:56:08;8.98;;;4.95;;
44430;SDS011;30135;47.866;-4.222;2023-06-14T02:58:38;7.68;;;4.10;;
44430;SDS011;30135;47.866;-4.222;2023-06-14T03:01:07;8.07;;;4.15;;
44430;SDS011;30135;47.866;-4.222;2023-06-14T03:03:37;8.60;;;4.05;;
44430;SDS011;30135;47.866;-4.222;2023-06-14T03:06:03;9.93;;;4.50;;
44430;SDS011;30135;47.866;-4.222;2023-06-14T03:08:33;13.00;;;4.35;;
44430;SDS011;30135;47.866;-4.222;2023-06-14T03:11:04;6.90;;;3.70;;
44430;SDS011;30135;47.866;-4.222;2023-06-14T03:13:30;10.60;;;4.05;;
44430;SDS011;30135;47.866;-4.222;2023-06-14T03:15:59;10.77;;;4.72;;
44430;SDS011;30135;47.866;-4.222;2023-06-14T03:18:31;9.55;;;5.05;;
44430;SDS011;30135;47.866;-4.222;2023-06-14T03:21:03;9.07;;;4.53;;
44430;SDS011;30135;47.866;-4.222;2023-06-14T03:23:30;7.45;;;3.60;;
44430;SDS011;30135;47.866;-4.222;2023-06-14T03:25:56;12.27;;;4.47;;
44430;SDS011;30135;47.866;-4.222;2023-06-14T03:28:22;6.40;;;3.58;;
44430;SDS011;30135;47.866;-4.222;2023-06-14T03:30:54;8.02;;;4.40;;
44430;SDS011;30135;47.866;-4.222;2023-06-14T03:33:20;7.15;;;3.67;;
44430;SDS011;30135;47.866;-4.222;2023-06-14T03:35:46;10.77;;;3.22;;
44430;SDS011;30135;47.866;-4.222;2023-06-14T03:38:12;7.28;;;3.72;;
44430;SDS011;30135;47.866;-4.222;2023-06-14T03:40:38;10.15;;;4.32;;
44430;SDS011;30135;47.866;-4.222;2023-06-14T03:43:04;5.38;;;3.22;;
44430;SDS011;30135;47.866;-4.222;2023-06-14T03:45:30;10.18;;;3.80;;
44430;SDS011;30135;47.866;-4.222;2023-06-14T03:47:56;8.48;;;4.93;;
44430;SDS011;30135;47.866;-4.222;2023-06-14T03:50:22;8.60;;;3.90;;
44430;SDS011;30135;47.866;-4.222;2023-06-14T03:52:48;8.48;;;3.03;;
44430;SDS011;30135;47.866;-4.222;2023-06-14T03:55:15;6.13;;;3.35;;
44430;SDS011;30135;47.866;-4.222;2023-06-14T03:57:41;6.78;;;3.42;;
44430;SDS011;30135;47.866;-4.222;2023-06-14T04:00:08;13.90;;;3.45;;
44430;SDS011;30135;47.866;-4.222;2023-06-14T04:02:36;8.43;;;3.85;;
44430;SDS011;30135;47.866;-4.222;2023-06-14T04:05:03;10.48;;;4.00;;
44430;SDS011;30135;47.866;-4.222;2023-06-14T04:07:30;21.70;;;4.40;;
44430;SDS011;30135;47.866;-4.222;2023-06-14T04:09:56;8.60;;;3.92;;
44430;SDS011;30135;47.866;-4.222;2023-06-14T04:12:22;7.25;;;4.20;;
44430;SDS011;30135;47.866;-4.222;2023-06-14T04:14:48;8.23;;;3.58;;
44430;SDS011;30135;47.866;-4.222;2023-06-14T04:17:14;8.98;;;3.92;;
44430;SDS011;30135;47.866;-4.222;2023-06-14T04:19:40;8.40;;;4.18;;
44430;SDS011;30135;47.866;-4.222;2023-06-14T04:22:06;8.50;;;4.43;;
44430;SDS011;30135;47.866;-4.222;2023-06-14T04:24:33;8.32;;;3.70;;
44430;SDS011;30135;47.866;-4.222;2023-06-14T04:26:59;10.38;;;4.32;;
44430;SDS011;30135;47.866;-4.222;2023-06-14T04:29:28;10.07;;;4.57;;
44430;SDS011;30135;47.866;-4.222;2023-06-14T04:31:56;8.23;;;4.28;;
44430;SDS011;30135;47.866;-4.222;2023-06-14T04:34:25;8.93;;;3.92;;
44430;SDS011;30135;47.866;-4.222;2023-06-14T04:36:55;9.20;;;4.50;;
44430;SDS011;30135;47.866;-4.222;2023-06-14T04:39:23;9.33;;;4.13;;
44430;SDS011;30135;47.866;-4.222;2023-06-14T04:41:50;10.77;;;4.32;;
44430;SDS011;30135;47.866;-4.222;2023-06-14T04:44:18;12.30;;;4.85;;
44430;SDS011;30135;47.866;-4.222;2023-06-14T04:46:49;10.93;;;4.47;;
44430;SDS011;30135;47.866;-4.222;2023-06-14T04:49:15;11.38;;;4.72;;
44430;SDS011;30135;47.866;-4.222;2023-06-14T04:51:42;10.60;;;4.53;;
44430;SDS011;30135;47.866;-4.222;2023-06-14T04:54:09;12.80;;;5.15;;
44430;SDS011;30135;47.866;-4.222;2023-06-14T04:56:42;12.75;;;5.82;;
44430;SDS011;30135;47.866;-4.222;2023-06-14T04:59:08;12.70;;;5.65;;
44430;SDS011;30135;47.866;-4.222;2023-06-14T05:01:36;12.13;;;5.85;;
44430;SDS011;30135;47.866;-4.222;2023-06-14T05:04:03;12.73;;;6.20;;
44430;SDS011;30135;47.866;-4.222;2023-06-14T05:06:30;10.77;;;4.95;;
44430;SDS011;30135;47.866;-4.222;2023-06-14T05:08:56;14.48;;;6.32;;
44430;SDS011;30135;47.866;-4.222;2023-06-14T05:11:22;14.45;;;6.07;;
44430;SDS011;30135;47.866;-4.222;2023-06-14T05:13:52;17.35;;;7.03;;
44430;SDS011;30135;47.866;-4.222;2023-06-14T05:16:18;11.00;;;5.70;;
44430;SDS011;30135;47.866;-4.222;2023-06-14T05:18:45;13.32;;;6.80;;
44430;SDS011;30135;47.866;-4.222;2023-06-14T05:21:12;15.30;;;7.05;;
44430;SDS011;30135;47.866;-4.222;2023-06-14T05:23:43;17.65;;;6.75;;
44430;SDS011;30135;47.866;-4.222;2023-06-14T05:26:10;12.82;;;6.13;;
44430;SDS011;30135;47.866;-4.222;2023-06-14T05:28:36;14.60;;;5.80;;
44430;SDS011;30135;47.866;-4.222;2023-06-14T05:31:04;10.07;;;4.90;;
44430;SDS011;30135;47.866;-4.222;2023-06-14T05:33:30;12.20;;;4.68;;
44430;SDS011;30135;47.866;-4.222;2023-06-14T05:35:56;9.63;;;5.20;;
44430;SDS011;30135;47.866;-4.222;2023-06-14T05:38:22;7.95;;;4.55;;
44430;SDS011;30135;47.866;-4.222;2023-06-14T05:40:48;9.43;;;4.50;;
44430;SDS011;30135;47.866;-4.222;2023-06-14T05:43:14;8.38;;;3.72;;
44430;SDS011;30135;47.866;-4.222;2023-06-14T05:45:40;12.23;;;3.85;;
44430;SDS011;30135;47.866;-4.222;2023-06-14T05:48:06;10.93;;;5.45;;
44430;SDS011;30135;47.866;-4.222;2023-06-14T05:50:32;6.20;;;3.63;;
44430;SDS011;30135;47.866;-4.222;2023-06-14T05:53:00;6.32;;;3.22;;
44430;SDS011;30135;47.866;-4.222;2023-06-14T05:55:26;5.10;;;3.25;;
44430;SDS011;30135;47.866;-4.222;2023-06-14T05:57:53;6.82;;;3.97;;
44430;SDS011;30135;47.866;-4.222;2023-06-14T06:00:19;10.23;;;4.00;;
44430;SDS011;30135;47.866;-4.222;2023-06-14T06:02:45;8.52;;;3.97;;
44430;SDS011;30135;47.866;-4.222;2023-06-14T06:05:12;8.02;;;4.15;;
44430;SDS011;30135;47.866;-4.222;2023-06-14T06:07:40;7.95;;;3.60;;
44430;SDS011;30135;47.866;-4.222;2023-06-14T06:10:09;11.60;;;4.00;;
44430;SDS011;30135;47.866;-4.222;2023-06-14T06:12:36;6.55;;;3.83;;
44430;SDS011;30135;47.866;-4.222;2023-06-14T06:15:02;7.50;;;3.67;;
44430;SDS011;30135;47.866;-4.222;2023-06-14T06:17:29;12.05;;;3.90;;
44430;SDS011;30135;47.866;-4.222;2023-06-14T06:19:55;8.70;;;4.47;;
44430;SDS011;30135;47.866;-4.222;2023-06-14T06:22:21;6.70;;;4.03;;
44430;SDS011;30135;47.866;-4.222;2023-06-14T06:24:47;12.52;;;4.10;;
44430;SDS011;30135;47.866;-4.222;2023-06-14T06:27:13;6.82;;;3.60;;
44430;SDS011;30135;47.866;-4.222;2023-06-14T06:29:41;7.75;;;3.05;;
44430;SDS011;30135;47.866;-4.222;2023-06-14T06:32:08;7.05;;;3.78;;
44430;SDS011;30135;47.866;-4.222;2023-06-14T06:34:35;8.10;;;3.85;;
44430;SDS011;30135;47.866;-4.222;2023-06-14T06:37:01;9.98;;;4.07;;
44430;SDS011;30135;47.866;-4.222;2023-06-14T06:39:27;6.32;;;3.63;;
44430;SDS011;30135;47.866;-4.222;2023-06-14T06:41:53;6.82;;;3.72;;
44430;SDS011;30135;47.866;-4.222;2023-06-14T06:44:19;5.45;;;3.30;;
44430;SDS011;30135;47.866;-4.222;2023-06-14T06:46:44;6.72;;;3.40;;
44430;SDS011;30135;47.866;-4.222;2023-06-14T06:49:10;9.02;;;3.50;;
44430;SDS011;30135;47.866;-4.222;2023-06-14T06:51:37;8.05;;;3.78;;
44430;SDS011;30135;47.866;-4.222;2023-06-14T06:54:10;6.82;;;3.65;;
44430;SDS011;30135;47.866;-4.222;2023-06-14T06:56:36;8.57;;;3.20;;
44430;SDS011;30135;47.866;-4.222;2023-06-14T06:59:02;6.50;;;3.05;;
44430;SDS011;30135;47.866;-4.222;2023-06-14T07:01:28;8.25;;;2.92;;
44430;SDS011;30135;47.866;-4.222;2023-06-14T07:03:55;4.47;;;2.28;;
44430;SDS011;30135;47.866;-4.222;2023-06-14T07:06:21;3.65;;;2.22;;
44430;SDS011;30135;47.866;-4.222;2023-06-14T07:08:47;5.05;;;3.00;;
44430;SDS011;30135;47.866;-4.222;2023-06-14T07:11:16;3.55;;;2.42;;
44430;SDS011;30135;47.866;-4.222;2023-06-14T07:13:42;5.28;;;2.63;;
44430;SDS011;30135;47.866;-4.222;2023-06-14T07:16:08;7.97;;;2.33;;
44430;SDS011;30135;47.866;-4.222;2023-06-14T07:18:36;5.85;;;3.13;;
44430;SDS011;30135;47.866;-4.222;2023-06-14T07:21:02;3.53;;;2.03;;
44430;SDS011;30135;47.866;-4.222;2023-06-14T07:23:33;4.28;;;2.63;;
44430;SDS011;30135;47.866;-4.222;2023-06-14T07:25:59;3.90;;;2.00;;
44430;SDS011;30135;47.866;-4.222;2023-06-14T07:28:30;11.77;;;4.05;;
44430;SDS011;30135;47.866;-4.222;2023-06-14T07:30:59;6.68;;;2.47;;
44430;SDS011;30135;47.866;-4.222;2023-06-14T07:33:26;4.68;;;2.53;;
44430;SDS011;30135;47.866;-4.222;2023-06-14T07:35:55;5.78;;;2.97;;
44430;SDS011;30135;47.866;-4.222;2023-06-14T07:38:21;4.95;;;2.80;;
44430;SDS011;30135;47.866;-4.222;2023-06-14T07:40:47;4.78;;;2.50;;
44430;SDS011;30135;47.866;-4.222;2023-06-14T07:43:13;3.45;;;2.22;;
44430;SDS011;30135;47.866;-4.222;2023-06-14T07:45:39;4.88;;;2.50;;
44430;SDS011;30135;47.866;-4.222;2023-06-14T07:48:05;4.40;;;2.20;;
44430;SDS011;30135;47.866;-4.222;2023-06-14T07:50:31;4.68;;;2.20;;
44430;SDS011;30135;47.866;-4.222;2023-06-14T07:52:57;9.35;;;2.65;;
44430;SDS011;30135;47.866;-4.222;2023-06-14T07:55:23;4.90;;;2.05;;
44430;SDS011;30135;47.866;-4.222;2023-06-14T07:57:50;3.40;;;2.00;;
44430;SDS011;30135;47.866;-4.222;2023-06-14T08:00:20;9.25;;;2.08;;
44430;SDS011;30135;47.866;-4.222;2023-06-14T08:02:46;6.85;;;1.92;;
44430;SDS011;30135;47.866;-4.222;2023-06-14T08:05:12;7.55;;;1.92;;
44430;SDS011;30135;47.866;-4.222;2023-06-14T08:07:39;5.20;;;2.08;;
44430;SDS011;30135;47.866;-4.222;2023-06-14T08:10:05;3.65;;;1.75;;
44430;SDS011;30135;47.866;-4.222;2023-06-14T08:12:32;3.45;;;1.85;;
44430;SDS011;30135;47.866;-4.222;2023-06-14T08:14:59;3.63;;;1.98;;
44430;SDS011;30135;47.866;-4.222;2023-06-14T08:17:26;6.25;;;2.58;;
44430;SDS011;30135;47.866;-4.222;2023-06-14T08:19:52;5.38;;;2.17;;
44430;SDS011;30135;47.866;-4.222;2023-06-14T08:22:22;5.88;;;2.65;;
44430;SDS011;30135;47.866;-4.222;2023-06-14T08:24:49;8.75;;;2.97;;
44430;SDS011;30135;47.866;-4.222;2023-06-14T08:27:16;3.25;;;1.70;;
44430;SDS011;30135;47.866;-4.222;2023-06-14T08:29:42;4.68;;;2.45;;
44430;SDS011;30135;47.866;-4.222;2023-06-14T08:32:08;4.55;;;2.22;;
44430;SDS011;30135;47.866;-4.222;2023-06-14T08:34:35;4.20;;;1.98;;
44430;SDS011;30135;47.866;-4.222;2023-06-14T08:37:01;3.42;;;1.90;;
44430;SDS011;30135;47.866;-4.222;2023-06-14T08:39:27;5.65;;;2.60;;
44430;SDS011;30135;47.866;-4.222;2023-06-14T08:41:53;4.40;;;2.13;;
44430;SDS011;30135;47.866;-4.222;2023-06-14T08:44:21;4.28;;;2.38;;
44430;SDS011;30135;47.866;-4.222;2023-06-14T08:46:48;3.75;;;1.55;;
44430;SDS011;30135;47.866;-4.222;2023-06-14T08:49:16;3.10;;;2.00;;
44430;SDS011;30135;47.866;-4.222;2023-06-14T08:51:43;6.40;;;2.13;;
44430;SDS011;30135;47.866;-4.222;2023-06-14T08:54:09;7.20;;;2.92;;
44430;SDS011;30135;47.866;-4.222;2023-06-14T08:56:38;4.07;;;1.70;;
44430;SDS011;30135;47.866;-4.222;2023-06-14T08:59:06;3.30;;;1.88;;
44430;SDS011;30135;47.866;-4.222;2023-06-14T09:01:34;4.20;;;1.98;;
44430;SDS011;30135;47.866;-4.222;2023-06-14T09:04:01;3.95;;;2.08;;
44430;SDS011;30135;47.866;-4.222;2023-06-14T09:06:30;4.70;;;1.88;;
44430;SDS011;30135;47.866;-4.222;2023-06-14T09:08:58;6.82;;;2.90;;
44430;SDS011;30135;47.866;-4.222;2023-06-14T09:11:24;7.10;;;1.65;;
44430;SDS011;30135;47.866;-4.222;2023-06-14T09:13:51;2.58;;;1.45;;
44430;SDS011;30135;47.866;-4.222;2023-06-14T09:16:18;3.53;;;1.60;;
44430;SDS011;30135;47.866;-4.222;2023-06-14T09:18:45;4.38;;;2.28;;
44430;SDS011;30135;47.866;-4.222;2023-06-14T09:21:15;2.70;;;1.27;;
44430;SDS011;30135;47.866;-4.222;2023-06-14T09:23:46;4.07;;;1.92;;
44430;SDS011;30135;47.866;-4.222;2023-06-14T09:26:17;6.97;;;1.83;;
44430;SDS011;30135;47.866;-4.222;2023-06-14T09:28:49;10.63;;;1.88;;
44430;SDS011;30135;47.866;-4.222;2023-06-14T09:31:16;3.45;;;2.13;;
44430;SDS011;30135;47.866;-4.222;2023-06-14T09:33:44;4.35;;;1.88;;
44430;SDS011;30135;47.866;-4.222;2023-06-14T09:36:21;4.97;;;2.05;;
44430;SDS011;30135;47.866;-4.222;2023-06-14T09:38:52;4.40;;;2.15;;
44430;SDS011;30135;47.866;-4.222;2023-06-14T09:41:19;4.20;;;2.65;;
44430;SDS011;30135;47.866;-4.222;2023-06-14T09:43:46;4.88;;;2.38;;
44430;SDS011;30135;47.866;-4.222;2023-06-14T09:46:13;2.08;;;1.48;;
44430;SDS011;30135;47.866;-4.222;2023-06-14T09:48:39;4.75;;;2.10;;
44430;SDS011;30135;47.866;-4.222;2023-06-14T09:51:09;4.80;;;2.05;;
44430;SDS011;30135;47.866;-4.222;2023-06-14T09:53:36;3.47;;;2.00;;
44430;SDS011;30135;47.866;-4.222;2023-06-14T09:56:04;4.88;;;2.17;;
44430;SDS011;30135;47.866;-4.222;2023-06-14T09:58:34;4.38;;;2.20;;
44430;SDS011;30135;47.866;-4.222;2023-06-14T10:01:04;4.85;;;2.53;;
44430;SDS011;30135;47.866;-4.222;2023-06-14T10:03:34;3.95;;;1.88;;
44430;SDS011;30135;47.866;-4.222;2023-06-14T10:06:02;4.25;;;2.30;;
44430;SDS011;30135;47.866;-4.222;2023-06-14T10:08:31;9.48;;;1.88;;
44430;SDS011;30135;47.866;-4.222;2023-06-14T10:11:00;3.55;;;2.00;;
44430;SDS011;30135;47.866;-4.222;2023-06-14T10:13:26;5.70;;;2.50;;
44430;SDS011;30135;47.866;-4.222;2023-06-14T10:16:16;7.38;;;2.67;;
44430;SDS011;30135;47.866;-4.222;2023-06-14T10:21:57;3.95;;;2.30;;
44430;SDS011;30135;47.866;-4.222;2023-06-14T10:24:37;9.82;;;2.40;;
44430;SDS011;30135;47.866;-4.222;2023-06-14T10:27:08;4.45;;;2.30;;
44430;SDS011;30135;47.866;-4.222;2023-06-14T10:30:10;3.58;;;2.08;;
44430;SDS011;30135;47.866;-4.222;2023-06-14T10:32:32;4.53;;;2.28;;
44430;SDS011;30135;47.866;-4.222;2023-06-14T10:35:00;7.10;;;2.47;;
44430;SDS011;30135;47.866;-4.222;2023-06-14T10:37:32;3.53;;;1.92;;
44430;SDS011;30135;47.866;-4.222;2023-06-14T10:39:58;5.07;;;2.90;;
44430;SDS011;30135;47.866;-4.222;2023-06-14T10:42:33;5.40;;;2.22;;
44430;SDS011;30135;47.866;-4.222;2023-06-14T10:45:00;6.22;;;3.40;;
44430;SDS011;30135;47.866;-4.222;2023-06-14T10:47:30;8.45;;;2.38;;
44430;SDS011;30135;47.866;-4.222;2023-06-14T10:52:40;4.82;;;2.53;;
44430;SDS011;30135;47.866;-4.222;2023-06-14T10:55:15;5.97;;;2.92;;
44430;SDS011;30135;47.866;-4.222;2023-06-14T10:57:47;6.57;;;1.95;;
44430;SDS011;30135;47.866;-4.222;2023-06-14T11:00:24;3.35;;;2.38;;
44430;SDS011;30135;47.866;-4.222;2023-06-14T11:03:03;8.98;;;2.63;;
44430;SDS011;30135;47.866;-4.222;2023-06-14T11:06:22;5.40;;;3.00;;
44430;SDS011;30135;47.866;-4.222;2023-06-14T11:11:51;4.10;;;2.58;;
44430;SDS011;30135;47.866;-4.222;2023-06-14T11:14:19;6.15;;;2.30;;
44430;SDS011;30135;47.866;-4.222;2023-06-14T11:16:51;4.00;;;2.42;;
44430;SDS011;30135;47.866;-4.222;2023-06-14T11:19:17;5.95;;;2.35;;
44430;SDS011;30135;47.866;-4.222;2023-06-14T11:21:46;6.43;;;2.70;;
44430;SDS011;30135;47.866;-4.222;2023-06-14T11:24:13;4.82;;;2.15;;
44430;SDS011;30135;47.866;-4.222;2023-06-14T11:26:40;6.15;;;2.35;;
44430;SDS011;30135;47.866;-4.222;2023-06-14T11:29:06;4.18;;;1.95;;
44430;SDS011;30135;47.866;-4.222;2023-06-14T11:31:32;7.38;;;2.35;;
44430;SDS011;30135;47.866;-4.222;2023-06-14T11:33:59;6.18;;;2.38;;
44430;SDS011;30135;47.866;-4.222;2023-06-14T11:36:29;5.93;;;3.03;;
44430;SDS011;30135;47.866;-4.222;2023-06-14T11:39:00;5.13;;;2.17;;
44430;SDS011;30135;47.866;-4.222;2023-06-14T11:41:38;7.20;;;2.25;;
44430;SDS011;30135;47.866;-4.222;2023-06-14T11:44:07;9.27;;;2.60;;
44430;SDS011;30135;47.866;-4.222;2023-06-14T11:46:33;4.10;;;2.28;;
44430;SDS011;30135;47.866;-4.222;2023-06-14T11:49:00;3.20;;;1.95;;
44430;SDS011;30135;47.866;-4.222;2023-06-14T11:51:32;3.33;;;1.80;;
44430;SDS011;30135;47.866;-4.222;2023-06-14T11:54:03;4.63;;;2.35;;
44430;SDS011;30135;47.866;-4.222;2023-06-14T11:56:31;4.97;;;2.33;;
44430;SDS011;30135;47.866;-4.222;2023-06-14T11:58:57;7.93;;;1.88;;
44430;SDS011;30135;47.866;-4.222;2023-06-14T12:01:23;3.55;;;2.42;;
44430;SDS011;30135;47.866;-4.222;2023-06-14T12:03:51;3.40;;;2.28;;
44430;SDS011;30135;47.866;-4.222;2023-06-14T12:06:28;5.70;;;2.35;;
44430;SDS011;30135;47.866;-4.222;2023-06-14T12:08:58;3.45;;;2.45;;
44430;SDS011;30135;47.866;-4.222;2023-06-14T12:13:58;4.88;;;2.30;;
44430;SDS011;30135;47.866;-4.222;2023-06-14T12:16:29;3.97;;;2.20;;
44430;SDS011;30135;47.866;-4.222;2023-06-14T12:19:16;3.03;;;1.92;;
44430;SDS011;30135;47.866;-4.222;2023-06-14T12:21:45;6.55;;;2.50;;
44430;SDS011;30135;47.866;-4.222;2023-06-14T12:24:16;5.63;;;2.15;;
44430;SDS011;30135;47.866;-4.222;2023-06-14T12:26:42;3.38;;;2.17;;
44430;SDS011;30135;47.866;-4.222;2023-06-14T12:29:08;7.32;;;3.42;;
44430;SDS011;30135;47.866;-4.222;2023-06-14T12:31:35;5.13;;;2.80;;
44430;SDS011;30135;47.866;-4.222;2023-06-14T12:34:01;6.22;;;3.15;;
44430;SDS011;30135;47.866;-4.222;2023-06-14T12:36:27;4.53;;;2.65;;
44430;SDS011;30135;47.866;-4.222;2023-06-14T12:38:53;5.43;;;2.92;;
44430;SDS011;30135;47.866;-4.222;2023-06-14T12:41:20;9.48;;;3.63;;
44430;SDS011;30135;47.866;-4.222;2023-06-14T12:43:47;7.03;;;3.35;;
44430;SDS011;30135;47.866;-4.222;2023-06-14T12:46:13;11.63;;;3.75;;
44430;SDS011;30135;47.866;-4.222;2023-06-14T12:48:39;5.68;;;2.72;;
44430;SDS011;30135;47.866;-4.222;2023-06-14T12:51:06;14.07;;;3.55;;
44430;SDS011;30135;47.866;-4.222;2023-06-14T12:53:32;9.93;;;2.80;;
44430;SDS011;30135;47.866;-4.222;2023-06-14T12:55:58;7.57;;;2.95;;
44430;SDS011;30135;47.866;-4.222;2023-06-14T12:58:23;4.53;;;2.85;;
44430;SDS011;30135;47.866;-4.222;2023-06-14T13:00:49;7.05;;;2.60;;
44430;SDS011;30135;47.866;-4.222;2023-06-14T13:03:16;5.22;;;2.83;;
44430;SDS011;30135;47.866;-4.222;2023-06-14T13:05:42;5.53;;;3.55;;
44430;SDS011;30135;47.866;-4.222;2023-06-14T13:08:13;10.88;;;3.15;;
44430;SDS011;30135;47.866;-4.222;2023-06-14T13:10:39;8.95;;;3.33;;
44430;SDS011;30135;47.866;-4.222;2023-06-14T13:13:05;5.72;;;2.90;;
44430;SDS011;30135;47.866;-4.222;2023-06-14T13:15:32;8.45;;;4.03;;
44430;SDS011;30135;47.866;-4.222;2023-06-14T13:17:58;9.98;;;3.08;;
44430;SDS011;30135;47.866;-4.222;2023-06-14T13:20:27;5.22;;;2.90;;
44430;SDS011;30135;47.866;-4.222;2023-06-14T13:22:52;5.15;;;2.60;;
44430;SDS011;30135;47.866;-4.222;2023-06-14T13:25:19;5.63;;;2.83;;
44430;SDS011;30135;47.866;-4.222;2023-06-14T13:27:45;7.88;;;3.83;;
44430;SDS011;30135;47.866;-4.222;2023-06-14T13:30:11;5.57;;;2.55;;
44430;SDS011;30135;47.866;-4.222;2023-06-14T13:32:37;7.13;;;4.15;;
44430;SDS011;30135;47.866;-4.222;2023-06-14T13:35:03;7.28;;;3.60;;
44430;SDS011;30135;47.866;-4.222;2023-06-14T13:37:30;9.23;;;2.95;;
44430;SDS011;30135;47.866;-4.222;2023-06-14T13:39:56;7.63;;;3.03;;
44430;SDS011;30135;47.866;-4.222;2023-06-14T13:42:22;6.03;;;3.40;;
44430;SDS011;30135;47.866;-4.222;2023-06-14T13:44:48;5.95;;;3.20;;
44430;SDS011;30135;47.866;-4.222;2023-06-14T13:47:13;6.15;;;3.22;;
44430;SDS011;30135;47.866;-4.222;2023-06-14T13:49:40;5.50;;;3.08;;
44430;SDS011;30135;47.866;-4.222;2023-06-14T13:52:06;8.95;;;3.00;;
44430;SDS011;30135;47.866;-4.222;2023-06-14T13:54:32;4.80;;;2.88;;
44430;SDS011;30135;47.866;-4.222;2023-06-14T13:56:58;8.85;;;3.05;;
44430;SDS011;30135;47.866;-4.222;2023-06-14T13:59:24;7.45;;;3.20;;
44430;SDS011;30135;47.866;-4.222;2023-06-14T14:01:50;5.90;;;2.95;;
44430;SDS011;30135;47.866;-4.222;2023-06-14T14:04:16;10.98;;;3.92;;
44430;SDS011;30135;47.866;-4.222;2023-06-14T14:06:42;5.30;;;3.15;;
44430;SDS011;30135;47.866;-4.222;2023-06-14T14:09:08;6.63;;;3.63;;
44430;SDS011;30135;47.866;-4.222;2023-06-14T14:11:35;8.80;;;3.20;;
44430;SDS011;30135;47.866;-4.222;2023-06-14T14:14:01;5.25;;;3.28;;
44430;SDS011;30135;47.866;-4.222;2023-06-14T14:16:27;9.00;;;3.30;;
44430;SDS011;30135;47.866;-4.222;2023-06-14T14:18:53;6.75;;;3.85;;
44430;SDS011;30135;47.866;-4.222;2023-06-14T14:21:19;6.85;;;3.72;;
44430;SDS011;30135;47.866;-4.222;2023-06-14T14:23:45;9.90;;;3.47;;
44430;SDS011;30135;47.866;-4.222;2023-06-14T14:26:12;9.73;;;4.35;;
44430;SDS011;30135;47.866;-4.222;2023-06-14T14:28:37;8.57;;;3.65;;
44430;SDS011;30135;47.866;-4.222;2023-06-14T14:31:03;7.28;;;3.40;;
44430;SDS011;30135;47.866;-4.222;2023-06-14T14:33:29;6.18;;;3.95;;
44430;SDS011;30135;47.866;-4.222;2023-06-14T14:35:55;8.80;;;4.10;;
44430;SDS011;30135;47.866;-4.222;2023-06-14T14:38:21;5.82;;;3.50;;
44430;SDS011;30135;47.866;-4.222;2023-06-14T14:40:47;7.22;;;3.65;;
44430;SDS011;30135;47.866;-4.222;2023-06-14T14:43:13;5.28;;;3.53;;
44430;SDS011;30135;47.866;-4.222;2023-06-14T14:45:39;8.82;;;3.65;;
44430;SDS011;30135;47.866;-4.222;2023-06-14T14:48:05;6.75;;;3.60;;
44430;SDS011;30135;47.866;-4.222;2023-06-14T14:50:32;7.85;;;4.25;;